Time;durP1;ratioP1;P1;durP2;ratioP2;P2;SDS_P1;SDS_P2;PMS_P1;PMS_P2;Temp;Humidity;BMP_temperature;BMP_pressure;BME280_temperature;BME280_humidity;BME280_pressure;Samples;Min_cycle;Max_cycle;Signal;HPM_P1;HPM_P2
2021/01/16 08:03:01;;;;;;;;;17.60;17.00;;;;;;;;1598127;27;83506;-89
2021/01/16 08:04:23;;;;;;;;;;;;;;;;;;;;;
2021/01/16 08:05:25;;;;;;;;;26.00;25.20;;;;;;;;1576287;27;112544;-90
2021/01/16 08:06:13;;;;;;;;;22.00;20.60;;;;;;;;1571573;27;85447;-89
2021/01/16 08:07:02;;;;;;;;;32.80;24.00;;;;;;;;1565747;27;84798;-90
2021/01/16 08:07:47;;;;;;;;;32.20;27.20;;;;;;;;1568569;27;85406;-89
2021/01/16 08:08:50;;;;;;;;;28.50;25.50;;;;;;;;1580661;27;85941;-90
2021/01/16 08:10:04;;;;;;;;;26.00;23.00;;;;;;;;1578237;27;84488;-88
2021/01/16 08:11:03;;;;;;;;;30.60;25.80;;;;;;;;1571480;27;84947;-90
2021/01/16 08:12:09;;;;;;;;;30.20;25.40;;;;;;;;1572316;27;83677;-91
2021/01/16 08:13:00;;;;;;;;;30.80;24.40;;;;;;;;1565574;27;86256;-90
2021/01/16 08:13:59;;;;;;;;;29.80;23.00;;;;;;;;1565365;27;85253;-89
2021/01/16 08:14:45;;;;;;;;;22.80;21.40;;;;;;;;1564542;27;83687;-89
2021/01/16 08:15:30;;;;;;;;;27.50;23.00;;;;;;;;1575812;27;86085;-89
2021/01/16 08:16:16;;;;;;;;;29.25;26.00;;;;;;;;1574035;27;84645;-89
2021/01/16 08:17:03;;;;;;;;;26.50;21.00;;;;;;;;1569622;27;83722;-89
2021/01/16 08:17:49;;;;;;;;;26.20;20.40;;;;;;;;1567571;27;85872;-88
2021/01/16 08:18:36;;;;;;;;;21.40;18.00;;;;;;;;1578182;27;85976;-89
2021/01/16 08:19:48;;;;;;;;;34.80;26.60;;;;;;;;1574071;27;87427;-90
2021/01/16 08:20:38;;;;;;;;;26.20;22.80;;;;;;;;1552656;28;84710;-90
2021/01/16 08:21:24;;;;;;;;;25.40;19.40;;;;;;;;1547570;28;84989;-89
2021/01/16 08:22:16;;;;;;;;;23.50;20.25;;;;;;;;1546382;28;84602;-89
2021/01/16 08:23:03;;;;;;;;;24.60;21.00;;;;;;;;1549448;28;86279;-90
2021/01/16 08:23:48;;;;;;;;;23.00;20.60;;;;;;;;1546616;28;84928;-90
2021/01/16 08:24:35;;;;;;;;;30.50;22.75;;;;;;;;1548675;28;84557;-90
2021/01/16 08:25:25;;;;;;;;;25.40;24.80;;;;;;;;1549217;28;84886;-89
2021/01/16 08:26:10;;;;;;;;;24.40;20.00;;;;;;;;1548999;28;86528;-89
2021/01/16 08:26:59;;;;;;;;;29.50;25.25;;;;;;;;1549153;28;85317;-89
2021/01/16 08:27:48;;;;;;;;;31.00;20.80;;;;;;;;1557992;28;85333;-89
2021/01/16 08:28:36;;;;;;;;;26.80;19.00;;;;;;;;1553544;28;85726;-90
2021/01/16 08:29:22;;;;;;;;;29.20;23.20;;;;;;;;1555758;28;86962;-90
2021/01/16 08:30:14;;;;;;;;;22.40;17.20;;;;;;;;1558995;28;87202;-89
2021/01/16 08:31:00;;;;;;;;;28.80;21.20;;;;;;;;1558897;28;86870;-90
2021/01/16 08:31:45;;;;;;;;;24.00;23.25;;;;;;;;1562097;27;85137;-89
2021/01/16 08:32:30;;;;;;;;;29.75;26.00;;;;;;;;1557081;28;86219;-88
2021/01/16 08:33:30;;;;;;;;;46.50;36.75;;;;;;;;1554528;28;85775;-87
2021/01/16 08:34:42;;;;;;;;;25.40;24.00;;;;;;;;1558776;28;86289;-88
2021/01/16 08:35:29;;;;;;;;;31.00;28.40;;;;;;;;1552379;28;86706;-85
2021/01/16 08:36:16;;;;;;;;;16.00;15.20;;;;;;;;1568133;27;85648;-88
2021/01/16 08:37:08;;;;;;;;;31.40;23.00;;;;;;;;1566157;27;85908;-92
2021/01/16 08:37:53;;;;;;;;;35.60;26.40;;;;;;;;1557112;28;85227;-89
2021/01/16 08:38:39;;;;;;;;;26.50;25.50;;;;;;;;1557088;27;86925;-90
2021/01/16 08:39:25;;;;;;;;;25.75;20.75;;;;;;;;1567265;27;87581;-91
2021/01/16 08:40:10;;;;;;;;;26.00;25.20;;;;;;;;1567269;27;86053;-90
2021/01/16 08:41:08;;;;;;;;;25.50;22.00;;;;;;;;1562736;27;85429;-90
2021/01/16 08:42:03;;;;;;;;;21.80;21.60;;;;;;;;1565065;27;86139;-89
2021/01/16 08:42:54;;;;;;;;;25.00;23.40;;;;;;;;1569875;27;86031;-90
2021/01/16 08:43:40;;;;;;;;;26.60;23.00;;;;;;;;1571065;27;86288;-89
2021/01/16 08:44:45;;;;;;;;;28.60;19.60;;;;;;;;1562001;27;85300;-90
2021/01/16 08:45:31;;;;;;;;;28.60;26.80;;;;;;;;1552429;28;86842;-90
2021/01/16 08:46:22;;;;;;;;;24.00;23.00;;;;;;;;1563579;27;86967;-89
2021/01/16 08:47:08;;;;;;;;;24.00;22.60;;;;;;;;1564969;27;85542;-90
2021/01/16 08:47:58;;;;;;;;;24.80;21.80;;;;;;;;1561895;27;86762;-90
2021/01/16 08:49:01;;;;;;;;;39.20;29.40;;;;;;;;1558761;28;86525;-90
2021/01/16 08:49:47;;;;;;;;;22.60;21.20;;;;;;;;1563780;27;84470;-89
2021/01/16 08:50:34;;;;;;;;;35.75;25.50;;;;;;;;1558582;28;86451;-90
2021/01/16 08:51:27;;;;;;;;;28.80;23.60;;;;;;;;1552367;28;86275;-88
2021/01/16 08:52:12;;;;;;;;;25.80;24.00;;;;;;;;1551929;28;82992;-89
2021/01/16 08:52:58;;;;;;;;;22.75;22.25;;;;;;;;1555747;28;83581;-91
2021/01/16 08:53:43;;;;;;;;;25.25;24.50;;;;;;;;1558791;28;86552;-88
2021/01/16 08:54:28;;;;;;;;;27.50;24.25;;;;;;;;1558442;28;86456;-87
2021/01/16 08:55:14;;;;;;;;;27.00;20.50;;;;;;;;1560011;27;85517;-89
2021/01/16 08:56:19;;;;;;;;;25.75;21.50;;;;;;;;1566346;27;86089;-88
2021/01/16 08:57:04;;;;;;;;;28.40;26.20;;;;;;;;1556974;28;86022;-88
2021/01/16 08:57:49;;;;;;;;;25.00;18.00;;;;;;;;1547929;28;85422;-88
2021/01/16 08:58:35;;;;;;;;;27.75;21.50;;;;;;;;1554207;28;85128;-89
2021/01/16 08:59:27;;;;;;;;;24.50;21.25;;;;;;;;1554360;28;85437;-89
2021/01/16 09:00:13;;;;;;;;;26.00;21.80;;;;;;;;1561777;27;83672;-89
2021/01/16 09:00:58;;;;;;;;;37.40;27.00;;;;;;;;1561879;27;85685;-88
2021/01/16 09:01:44;;;;;;;;;28.25;21.75;;;;;;;;1558806;28;84854;-88
2021/01/16 09:02:30;;;;;;;;;27.40;24.00;;;;;;;;1560694;27;86839;-89
2021/01/16 09:03:16;;;;;;;;;28.00;25.25;;;;;;;;1558893;28;84602;-89
2021/01/16 09:04:12;;;;;;;;;31.00;28.20;;;;;;;;1558867;28;86298;-89
2021/01/16 09:04:57;;;;;;;;;32.80;24.80;;;;;;;;1563672;27;84587;-89
2021/01/16 09:05:44;;;;;;;;;30.50;24.75;;;;;;;;1561956;27;85111;-89
2021/01/16 09:06:29;;;;;;;;;24.00;21.20;;;;;;;;1567206;27;84668;-89
2021/01/16 09:07:20;;;;;;;;;26.25;22.75;;;;;;;;1564973;27;83787;-90
2021/01/16 09:08:18;;;;;;;;;28.20;23.20;;;;;;;;1562202;27;84544;-88
2021/01/16 09:09:04;;;;;;;;;29.20;22.20;;;;;;;;1569564;27;83680;-88
2021/01/16 09:09:56;;;;;;;;;31.00;25.25;;;;;;;;1577348;27;83811;-88
2021/01/16 09:10:41;;;;;;;;;23.60;21.60;;;;;;;;1580808;27;85293;-89
2021/01/16 09:11:27;;;;;;;;;33.75;23.00;;;;;;;;1571204;27;85695;-89
2021/01/16 09:12:12;;;;;;;;;34.50;27.00;;;;;;;;1565107;27;83622;-89
2021/01/16 09:12:59;;;;;;;;;32.00;26.00;;;;;;;;1560618;27;86096;-89
2021/01/16 09:13:45;;;;;;;;;28.40;27.00;;;;;;;;1557551;28;86431;-89
2021/01/16 09:14:31;;;;;;;;;24.40;20.40;;;;;;;;1565987;27;84704;-88
2021/01/16 09:15:19;;;;;;;;;35.75;22.25;;;;;;;;1566873;27;87430;-89
2021/01/16 09:16:04;;;;;;;;;26.00;24.20;;;;;;;;1567255;27;83641;-89
2021/01/16 09:16:49;;;;;;;;;33.25;28.00;;;;;;;;1563089;27;86172;-89
2021/01/16 09:17:34;;;;;;;;;24.00;22.00;;;;;;;;1567067;27;86938;-88
2021/01/16 09:18:20;;;;;;;;;30.50;25.50;;;;;;;;1567073;27;86533;-88
2021/01/16 09:19:05;;;;;;;;;24.50;20.75;;;;;;;;1566999;27;86355;-88
2021/01/16 09:19:54;;;;;;;;;19.00;16.25;;;;;;;;1564683;27;85766;-89
2021/01/16 09:20:45;;;;;;;;;21.80;20.40;;;;;;;;1568288;27;85938;-89
2021/01/16 09:21:31;;;;;;;;;32.00;25.20;;;;;;;;1570401;27;86347;-88
2021/01/16 09:22:19;;;;;;;;;22.50;19.50;;;;;;;;1563917;27;85619;-88
2021/01/16 09:23:23;;;;;;;;;30.00;24.20;;;;;;;;1557065;28;86222;-88
2021/01/16 09:24:20;;;;;;;;;27.60;24.40;;;;;;;;1559715;28;83800;-89
2021/01/16 09:25:20;;;;;;;;;34.00;28.00;;;;;;;;1560530;28;85012;-88
2021/01/16 09:26:10;;;;;;;;;29.60;24.80;;;;;;;;1560374;28;86396;-89
2021/01/16 09:26:55;;;;;;;;;31.00;26.40;;;;;;;;1559234;28;86542;-88
2021/01/16 09:27:45;;;;;;;;;26.00;24.25;;;;;;;;1557003;28;86500;-88
2021/01/16 09:28:40;;;;;;;;;29.20;27.20;;;;;;;;1557426;28;84671;-89
2021/01/16 09:29:26;;;;;;;;;28.60;24.20;;;;;;;;1560837;28;85408;-87
2021/01/16 09:30:31;;;;;;;;;22.60;19.20;;;;;;;;1557992;28;85942;-88
2021/01/16 09:31:20;;;;;;;;;18.80;18.80;;;;;;;;1567410;27;85845;-88
2021/01/16 09:32:06;;;;;;;;;21.80;19.60;;;;;;;;1578960;27;84538;-88
2021/01/16 09:32:51;;;;;;;;;33.50;29.75;;;;;;;;1577067;27;87135;-88
2021/01/16 09:33:42;;;;;;;;;26.00;23.25;;;;;;;;1565096;27;84684;-88
2021/01/16 09:34:35;;;;;;;;;24.80;24.40;;;;;;;;1562752;27;84929;-88
2021/01/16 09:35:35;;;;;;;;;36.00;26.60;;;;;;;;1560201;28;86227;-88
2021/01/16 09:36:35;;;;;;;;;23.20;23.20;;;;;;;;1559652;28;85352;-88
2021/01/16 09:37:24;;;;;;;;;18.00;16.20;;;;;;;;1566834;27;86589;-88
2021/01/16 09:38:16;;;;;;;;;22.00;18.80;;;;;;;;1563676;27;85322;-87
2021/01/16 09:39:03;;;;;;;;;23.20;23.20;;;;;;;;1564362;27;84271;-88
2021/01/16 09:39:59;;;;;;;;;28.60;22.80;;;;;;;;1560478;28;85930;-88
2021/01/16 09:40:44;;;;;;;;;19.60;18.60;;;;;;;;1560532;28;86987;-87
2021/01/16 09:41:33;;;;;;;;;31.00;21.60;;;;;;;;1564278;27;84093;-88
2021/01/16 09:42:20;;;;;;;;;30.80;23.40;;;;;;;;1563176;27;85229;-88
2021/01/16 09:43:22;;;;;;;;;34.60;26.80;;;;;;;;1560929;28;85499;-88
2021/01/16 09:44:07;;;;;;;;;30.40;25.60;;;;;;;;1571656;27;85707;-88
2021/01/16 09:44:56;;;;;;;;;22.50;18.25;;;;;;;;1573552;27;85370;-88
2021/01/16 09:45:53;;;;;;;;;34.40;28.80;;;;;;;;1564598;27;85406;-88
2021/01/16 09:46:39;;;;;;;;;27.20;25.20;;;;;;;;1564809;27;86976;-88
2021/01/16 09:47:27;;;;;;;;;23.80;19.20;;;;;;;;1567100;27;85405;-89
2021/01/16 09:48:32;;;;;;;;;33.20;29.20;;;;;;;;1560758;28;85267;-88
2021/01/16 09:49:37;;;;;;;;;30.40;28.40;;;;;;;;1570209;27;85342;-87
2021/01/16 09:50:26;;;;;;;;;27.60;21.20;;;;;;;;1573073;27;83919;-88
2021/01/16 09:51:13;;;;;;;;;25.20;20.60;;;;;;;;1561595;27;86695;-89
2021/01/16 09:52:02;;;;;;;;;23.40;22.20;;;;;;;;1566677;27;87205;-89
2021/01/16 09:52:49;;;;;;;;;30.00;25.20;;;;;;;;1566959;27;85378;-88
2021/01/16 09:53:35;;;;;;;;;34.60;29.20;;;;;;;;1565136;27;85125;-88
2021/01/16 09:54:21;;;;;;;;;33.00;28.00;;;;;;;;1559268;27;85246;-88
2021/01/16 09:55:15;;;;;;;;;25.20;23.60;;;;;;;;1573244;27;87027;-88
2021/01/16 09:56:00;;;;;;;;;29.60;23.40;;;;;;;;1569826;27;86578;-89
2021/01/16 09:56:49;;;;;;;;;31.25;26.75;;;;;;;;1563583;27;85316;-88
2021/01/16 09:57:36;;;;;;;;;29.80;27.40;;;;;;;;1563073;27;86050;-87
2021/01/16 09:58:27;;;;;;;;;34.40;27.80;;;;;;;;1563106;27;85473;-88
2021/01/16 09:59:13;;;;;;;;;35.60;30.20;;;;;;;;1560907;28;85830;-88
2021/01/16 10:00:15;;;;;;;;;30.80;28.00;;;;;;;;1562272;27;84030;-87
2021/01/16 10:01:16;;;;;;;;;34.40;28.20;;;;;;;;1573195;27;85969;-88
2021/01/16 10:02:10;;;;;;;;;33.20;26.00;;;;;;;;1572825;27;85513;-87
2021/01/16 10:03:03;;;;;;;;;26.40;24.00;;;;;;;;1570384;27;84130;-89
2021/01/16 10:03:50;;;;;;;;;21.80;20.60;;;;;;;;1565368;27;84849;-87
2021/01/16 10:04:45;;;;;;;;;31.20;27.40;;;;;;;;1560667;28;85086;-88
2021/01/16 10:05:40;;;;;;;;;33.00;28.00;;;;;;;;1566845;27;85130;-87
2021/01/16 10:06:32;;;;;;;;;34.40;27.80;;;;;;;;1578046;27;84933;-87
2021/01/16 10:07:17;;;;;;;;;32.20;26.20;;;;;;;;1568978;27;85088;-87
2021/01/16 10:08:03;;;;;;;;;34.00;28.00;;;;;;;;1570342;27;84047;-88
2021/01/16 10:08:49;;;;;;;;;31.40;29.60;;;;;;;;1575307;27;85818;-86
2021/01/16 10:09:47;;;;;;;;;31.20;26.80;;;;;;;;1571034;27;84887;-88
2021/01/16 10:10:46;;;;;;;;;27.00;25.20;;;;;;;;1557430;28;84843;-87
2021/01/16 10:11:51;;;;;;;;;30.80;26.20;;;;;;;;1560016;28;83770;-88
2021/01/16 10:12:40;;;;;;;;;29.60;24.60;;;;;;;;1560422;27;84914;-88
2021/01/16 10:13:35;;;;;;;;;28.20;22.00;;;;;;;;1560460;28;83549;-86
2021/01/16 10:14:21;;;;;;;;;27.80;21.20;;;;;;;;1560279;28;86599;-86
2021/01/16 10:15:20;;;;;;;;;25.25;23.50;;;;;;;;1563673;27;83496;-86
2021/01/16 10:16:06;;;;;;;;;29.40;28.40;;;;;;;;1571102;27;84991;-88
2021/01/16 10:16:52;;;;;;;;;25.40;24.60;;;;;;;;1573158;27;86018;-89
2021/01/16 10:17:41;;;;;;;;;34.25;30.25;;;;;;;;1572927;27;87346;-88
2021/01/16 10:18:28;;;;;;;;;29.40;21.00;;;;;;;;1571218;27;85048;-87
2021/01/16 10:19:14;;;;;;;;;31.20;26.60;;;;;;;;1572594;27;84984;-89
2021/01/16 10:20:07;;;;;;;;;32.00;25.20;;;;;;;;1573287;27;83957;-87
2021/01/16 10:21:05;;;;;;;;;25.60;23.40;;;;;;;;1560743;28;85084;-88
2021/01/16 10:21:59;;;;;;;;;26.00;21.80;;;;;;;;1566966;27;86053;-88
2021/01/16 10:22:48;;;;;;;;;26.40;21.80;;;;;;;;1575099;27;84736;-88
2021/01/16 10:23:37;;;;;;;;;34.40;24.20;;;;;;;;1571051;27;83800;-88
2021/01/16 10:24:23;;;;;;;;;25.60;22.40;;;;;;;;1566839;27;84029;-87
2021/01/16 10:25:10;;;;;;;;;34.80;29.00;;;;;;;;1553997;28;86408;-87
2021/01/16 10:26:00;;;;;;;;;32.60;25.60;;;;;;;;1562272;27;86536;-88
2021/01/16 10:26:47;;;;;;;;;25.20;20.60;;;;;;;;1563237;28;83607;-88
2021/01/16 10:27:46;;;;;;;;;27.80;20.60;;;;;;;;1560478;28;84723;-87
2021/01/16 10:28:35;;;;;;;;;30.60;24.00;;;;;;;;1559549;27;84592;-87
2021/01/16 10:29:21;;;;;;;;;20.20;14.00;;;;;;;;1556096;28;84579;-88
2021/01/16 10:30:10;;;;;;;;;36.00;30.00;;;;;;;;1557079;28;85623;-88
2021/01/16 10:30:58;;;;;;;;;34.20;27.20;;;;;;;;1559716;28;86045;-88
2021/01/16 10:31:44;;;;;;;;;33.80;26.40;;;;;;;;1554700;28;84713;-86
2021/01/16 10:32:29;;;;;;;;;27.75;23.50;;;;;;;;1556681;28;85906;-88
2021/01/16 10:33:20;;;;;;;;;17.50;16.25;;;;;;;;1557658;28;85055;-87
2021/01/16 10:34:07;;;;;;;;;28.20;22.80;;;;;;;;1561139;28;87006;-88
2021/01/16 10:34:57;;;;;;;;;34.20;26.40;;;;;;;;1555195;28;85918;-87
2021/01/16 10:35:43;;;;;;;;;35.40;27.00;;;;;;;;1558299;28;87308;-87
2021/01/16 10:36:30;;;;;;;;;29.20;26.20;;;;;;;;1558731;28;85277;-87
2021/01/16 10:37:16;;;;;;;;;32.80;29.00;;;;;;;;1562404;28;84840;-87
2021/01/16 10:38:02;;;;;;;;;25.80;23.60;;;;;;;;1561271;28;84755;-87
2021/01/16 10:38:51;;;;;;;;;23.75;20.50;;;;;;;;1558598;28;84836;-89
2021/01/16 10:39:40;;;;;;;;;25.20;20.20;;;;;;;;1558267;28;82766;-87
2021/01/16 10:40:25;;;;;;;;;29.20;22.20;;;;;;;;1558619;28;86472;-87
2021/01/16 10:41:12;;;;;;;;;26.20;24.40;;;;;;;;1571035;27;83616;-87
2021/01/16 10:42:10;;;;;;;;;27.40;22.80;;;;;;;;1574070;27;83338;-88
2021/01/16 10:42:56;;;;;;;;;27.40;21.00;;;;;;;;1576995;27;86428;-88
2021/01/16 10:43:43;;;;;;;;;28.20;25.80;;;;;;;;1579731;27;85508;-87
2021/01/16 10:44:36;;;;;;;;;24.20;23.00;;;;;;;;1576892;27;83243;-88
2021/01/16 10:45:22;;;;;;;;;23.40;17.60;;;;;;;;1577784;27;85402;-87
2021/01/16 10:46:22;;;;;;;;;26.80;19.20;;;;;;;;1577056;27;85457;-87
2021/01/16 10:47:25;;;;;;;;;30.20;26.00;;;;;;;;1569574;27;85908;-87
2021/01/16 10:48:17;;;;;;;;;36.40;29.60;;;;;;;;1561348;28;85290;-88
2021/01/16 10:49:12;;;;;;;;;30.00;24.00;;;;;;;;1562984;28;85434;-88
2021/01/16 10:50:02;;;;;;;;;26.60;23.20;;;;;;;;1569878;27;85255;-87
2021/01/16 10:50:55;;;;;;;;;22.40;22.40;;;;;;;;1572946;27;85091;-87
2021/01/16 10:51:46;;;;;;;;;22.40;18.80;;;;;;;;1562593;27;87031;-88
2021/01/16 10:52:31;;;;;;;;;28.60;26.40;;;;;;;;1560411;28;85836;-88
2021/01/16 10:53:17;;;;;;;;;29.00;25.00;;;;;;;;1560425;28;86627;-89
2021/01/16 10:54:03;;;;;;;;;33.00;29.60;;;;;;;;1556468;28;85120;-88
2021/01/16 10:54:59;;;;;;;;;25.75;24.50;;;;;;;;1559841;28;85139;-88
2021/01/16 10:55:53;;;;;;;;;21.60;20.00;;;;;;;;1560548;27;87036;-88
2021/01/16 10:56:42;;;;;;;;;22.80;20.20;;;;;;;;1574517;27;85996;-88
2021/01/16 10:57:38;;;;;;;;;24.60;20.80;;;;;;;;1572904;27;85487;-88
2021/01/16 10:58:27;;;;;;;;;24.40;20.20;;;;;;;;1562606;27;85455;-90
2021/01/16 10:59:15;;;;;;;;;17.20;15.60;;;;;;;;1554893;28;85192;-89
2021/01/16 11:00:03;;;;;;;;;38.60;27.40;;;;;;;;1563964;27;84134;-88
2021/01/16 11:00:59;;;;;;;;;36.40;30.00;;;;;;;;1563676;27;84288;-88
2021/01/16 11:01:46;;;;;;;;;32.60;32.60;;;;;;;;1563541;27;85356;-88
2021/01/16 11:02:36;;;;;;;;;30.80;27.00;;;;;;;;1564399;27;85439;-88
2021/01/16 11:03:24;;;;;;;;;29.20;24.60;;;;;;;;1564334;27;83332;-88
2021/01/16 11:04:22;;;;;;;;;27.00;24.40;;;;;;;;1559407;27;85052;-88
2021/01/16 11:05:16;;;;;;;;;31.00;22.80;;;;;;;;1568690;27;85350;-88
2021/01/16 11:06:05;;;;;;;;;34.20;29.80;;;;;;;;1555159;28;85075;-88
2021/01/16 11:06:52;;;;;;;;;31.20;24.60;;;;;;;;1558631;28;84238;-88
2021/01/16 11:07:39;;;;;;;;;27.00;20.80;;;;;;;;1557342;28;85488;-89
2021/01/16 11:08:28;;;;;;;;;26.40;20.60;;;;;;;;1560902;27;86336;-88
2021/01/16 11:09:34;;;;;;;;;10.80;10.00;;;;;;;;1565077;27;85987;-88
2021/01/16 11:10:29;;;;;;;;;27.00;25.20;;;;;;;;1573107;27;85373;-88
2021/01/16 11:11:25;;;;;;;;;31.40;25.60;;;;;;;;1560293;27;85590;-88
2021/01/16 11:12:10;;;;;;;;;28.00;28.00;;;;;;;;1565766;27;85855;-88
2021/01/16 11:12:57;;;;;;;;;31.25;29.50;;;;;;;;1572646;27;85363;-87
2021/01/16 11:13:45;;;;;;;;;27.20;21.20;;;;;;;;1566422;27;85230;-88
2021/01/16 11:14:30;;;;;;;;;26.00;21.60;;;;;;;;1559911;28;86403;-89
2021/01/16 11:15:18;;;;;;;;;29.50;26.25;;;;;;;;1569197;27;86188;-87
2021/01/16 11:16:13;;;;;;;;;25.00;22.60;;;;;;;;1569023;27;85994;-88
2021/01/16 11:16:59;;;;;;;;;24.40;20.80;;;;;;;;1562721;27;86572;-88
2021/01/16 11:17:47;;;;;;;;;28.00;25.00;;;;;;;;1563610;27;83954;-87
2021/01/16 11:18:34;;;;;;;;;29.00;25.20;;;;;;;;1560280;28;85100;-88
2021/01/16 11:19:22;;;;;;;;;29.20;25.60;;;;;;;;1568937;27;84578;-88
2021/01/16 11:20:09;;;;;;;;;36.60;26.40;;;;;;;;1566493;27;86231;-88
2021/01/16 11:20:57;;;;;;;;;24.40;23.20;;;;;;;;1566587;27;86298;-88
2021/01/16 11:21:47;;;;;;;;;26.40;22.60;;;;;;;;1566543;27;84946;-89
2021/01/16 11:22:38;;;;;;;;;23.20;20.00;;;;;;;;1560182;28;85234;-88
2021/01/16 11:23:42;;;;;;;;;25.60;22.60;;;;;;;;1569659;27;86046;-87
2021/01/16 11:24:29;;;;;;;;;25.20;22.20;;;;;;;;1571702;27;84909;-88
2021/01/16 11:25:25;;;;;;;;;25.00;23.00;;;;;;;;1561607;27;84929;-87
2021/01/16 11:26:10;;;;;;;;;29.20;25.20;;;;;;;;1557311;28;86107;-89
2021/01/16 11:26:59;;;;;;;;;24.75;22.50;;;;;;;;1556993;28;86109;-88
2021/01/16 11:28:04;;;;;;;;;25.40;23.60;;;;;;;;1562348;27;86084;-88
2021/01/16 11:28:49;;;;;;;;;28.40;22.00;;;;;;;;1566167;27;86776;-89
2021/01/16 11:29:40;;;;;;;;;22.75;22.75;;;;;;;;1560085;28;86292;-89
2021/01/16 11:30:29;;;;;;;;;31.80;27.40;;;;;;;;1562991;27;85508;-88
2021/01/16 11:31:31;;;;;;;;;19.60;19.00;;;;;;;;1566642;27;84902;-88
2021/01/16 11:32:18;;;;;;;;;28.40;23.20;;;;;;;;1566534;27;83448;-87
2021/01/16 11:33:10;;;;;;;;;29.60;26.00;;;;;;;;1566132;27;85192;-88
2021/01/16 11:34:20;;;;;;;;;29.00;24.40;;;;;;;;1564619;27;85240;-88
2021/01/16 11:35:07;;;;;;;;;30.60;25.00;;;;;;;;1572755;27;86039;-88
2021/01/16 11:35:54;;;;;;;;;24.20;21.40;;;;;;;;1563462;27;86034;-88
2021/01/16 11:37:05;;;;;;;;;27.40;24.60;;;;;;;;1556220;27;83664;-87
2021/01/16 11:37:52;;;;;;;;;28.00;20.80;;;;;;;;1556912;27;86015;-88
2021/01/16 11:38:42;;;;;;;;;33.20;28.20;;;;;;;;1571761;27;83663;-88
2021/01/16 11:39:46;;;;;;;;;28.40;23.80;;;;;;;;1575597;27;85313;-88
2021/01/16 11:40:32;;;;;;;;;27.20;24.40;;;;;;;;1560838;27;84968;-88
2021/01/16 11:41:46;;;;;;;;;25.00;22.60;;;;;;;;1558494;28;83742;-88
2021/01/16 11:42:47;;;;;;;;;22.60;19.60;;;;;;;;1550866;27;85010;-88
2021/01/16 11:43:33;;;;;;;;;29.40;26.80;;;;;;;;1559465;27;87056;-88
2021/01/16 11:44:18;;;;;;;;;21.00;17.75;;;;;;;;1557974;28;86838;-89
2021/01/16 11:45:04;;;;;;;;;22.50;21.00;;;;;;;;1555676;28;86111;-87
2021/01/16 11:45:59;;;;;;;;;17.25;17.25;;;;;;;;1555425;28;86642;-88
2021/01/16 11:46:49;;;;;;;;;24.00;20.40;;;;;;;;1557633;28;86255;-89
2021/01/16 11:47:47;;;;;;;;;24.00;21.20;;;;;;;;1560744;27;84956;-89
2021/01/16 11:48:32;;;;;;;;;28.60;22.00;;;;;;;;1562940;27;84995;-89
2021/01/16 11:49:18;;;;;;;;;24.75;21.00;;;;;;;;1574964;27;86077;-89
2021/01/16 11:50:06;;;;;;;;;18.25;18.25;;;;;;;;1575417;27;85435;-88
2021/01/16 11:50:51;;;;;;;;;18.40;18.40;;;;;;;;1574188;27;84733;-88
2021/01/16 11:51:37;;;;;;;;;24.75;21.50;;;;;;;;1574026;27;86022;-89
2021/01/16 11:52:22;;;;;;;;;30.00;27.50;;;;;;;;1574433;27;85989;-89
2021/01/16 11:53:08;;;;;;;;;15.00;12.50;;;;;;;;1568794;27;83789;-89
2021/01/16 11:53:56;;;;;;;;;29.60;26.20;;;;;;;;1572349;27;83562;-88
2021/01/16 11:54:42;;;;;;;;;20.80;16.80;;;;;;;;1578867;27;85433;-89
2021/01/16 11:55:27;;;;;;;;;24.75;23.00;;;;;;;;1573519;27;85038;-89
2021/01/16 11:56:13;;;;;;;;;39.25;33.75;;;;;;;;1569474;27;85922;-88
2021/01/16 11:56:58;;;;;;;;;33.80;31.80;;;;;;;;1570847;27;85911;-89
2021/01/16 11:57:44;;;;;;;;;43.25;34.00;;;;;;;;1578462;27;83657;-89
2021/01/16 11:58:31;;;;;;;;;30.60;29.00;;;;;;;;1572295;27;85488;-89
2021/01/16 11:59:18;;;;;;;;;49.20;41.80;;;;;;;;1567816;27;83742;-90
2021/01/16 12:00:04;;;;;;;;;34.00;31.60;;;;;;;;1570314;27;86614;-90
2021/01/16 12:00:50;;;;;;;;;50.25;37.25;;;;;;;;1571784;27;85690;-89
2021/01/16 12:01:38;;;;;;;;;35.25;33.50;;;;;;;;1568833;27;86187;-88
2021/01/16 12:02:26;;;;;;;;;40.60;33.00;;;;;;;;1573916;27;83661;-90
2021/01/16 12:03:12;;;;;;;;;30.00;25.40;;;;;;;;1574750;27;83289;-89
2021/01/16 12:04:03;;;;;;;;;25.20;22.00;;;;;;;;1570350;27;85484;-89
2021/01/16 12:04:48;;;;;;;;;25.60;25.60;;;;;;;;1554513;28;85640;-90
2021/01/16 12:05:34;;;;;;;;;30.75;26.75;;;;;;;;1560013;28;86612;-89
2021/01/16 12:06:19;;;;;;;;;26.50;22.00;;;;;;;;1570915;27;85713;-88
2021/01/16 12:07:05;;;;;;;;;29.00;27.75;;;;;;;;1566749;27;87195;-88
2021/01/16 12:07:54;;;;;;;;;25.60;22.00;;;;;;;;1564311;27;86941;-88
2021/01/16 12:08:46;;;;;;;;;26.00;24.80;;;;;;;;1565204;27;87985;-88
2021/01/16 12:09:32;;;;;;;;;29.20;22.60;;;;;;;;1565175;28;84000;-88
2021/01/16 12:10:20;;;;;;;;;27.75;25.50;;;;;;;;1564769;28;86851;-88
2021/01/16 12:11:09;;;;;;;;;31.40;23.00;;;;;;;;1567181;27;85469;-89
2021/01/16 12:11:57;;;;;;;;;21.20;21.20;;;;;;;;1569133;27;84192;-89
2021/01/16 12:12:43;;;;;;;;;20.40;19.40;;;;;;;;1572489;27;85766;-89
2021/01/16 12:13:29;;;;;;;;;28.75;22.00;;;;;;;;1571259;27;84972;-89
2021/01/16 12:14:16;;;;;;;;;29.25;25.75;;;;;;;;1575115;27;86381;-89
2021/01/16 12:15:01;;;;;;;;;24.60;24.00;;;;;;;;1578857;27;84183;-88
2021/01/16 12:15:53;;;;;;;;;20.00;18.75;;;;;;;;1573933;27;85488;-88
2021/01/16 12:16:39;;;;;;;;;33.20;32.60;;;;;;;;1568312;27;84545;-88
2021/01/16 12:17:27;;;;;;;;;27.60;26.60;;;;;;;;1568444;27;85305;-88
2021/01/16 12:18:15;;;;;;;;;27.60;24.60;;;;;;;;1561964;28;85417;-88
2021/01/16 12:19:00;;;;;;;;;30.60;24.20;;;;;;;;1557805;28;86958;-88
2021/01/16 12:19:49;;;;;;;;;29.50;27.00;;;;;;;;1559116;28;85244;-87
2021/01/16 12:20:34;;;;;;;;;24.40;22.60;;;;;;;;1563511;27;86142;-89
2021/01/16 12:21:25;;;;;;;;;26.50;23.00;;;;;;;;1562292;28;85354;-88
2021/01/16 12:22:11;;;;;;;;;21.40;20.00;;;;;;;;1558305;28;85204;-90
2021/01/16 12:22:57;;;;;;;;;21.20;15.80;;;;;;;;1558308;28;87453;-87
2021/01/16 12:23:44;;;;;;;;;25.00;22.00;;;;;;;;1557942;28;85584;-88
2021/01/16 12:24:30;;;;;;;;;28.20;22.20;;;;;;;;1556479;28;85882;-88
2021/01/16 12:25:16;;;;;;;;;23.80;20.80;;;;;;;;1556594;28;83589;-89
2021/01/16 12:26:06;;;;;;;;;29.00;28.00;;;;;;;;1552690;28;85088;-89
2021/01/16 12:26:56;;;;;;;;;24.40;20.80;;;;;;;;1552720;28;84904;-89
2021/01/16 12:27:51;;;;;;;;;27.60;24.40;;;;;;;;1560292;28;85897;-89
2021/01/16 12:28:37;;;;;;;;;20.40;20.00;;;;;;;;1561260;28;85433;-90
2021/01/16 12:29:33;;;;;;;;;27.20;26.40;;;;;;;;1558493;28;84846;-89
2021/01/16 12:30:19;;;;;;;;;26.80;22.80;;;;;;;;1560538;28;84047;-89
2021/01/16 12:31:05;;;;;;;;;24.00;20.60;;;;;;;;1560829;28;85236;-89
2021/01/16 12:32:03;;;;;;;;;25.50;23.00;;;;;;;;1556995;28;85079;-89
2021/01/16 12:32:49;;;;;;;;;26.80;23.40;;;;;;;;1560956;28;84734;-89
2021/01/16 12:33:36;;;;;;;;;24.00;20.00;;;;;;;;1561264;27;85599;-90
2021/01/16 12:34:21;;;;;;;;;21.60;21.40;;;;;;;;1571147;27;84674;-90
2021/01/16 12:35:06;;;;;;;;;20.50;18.00;;;;;;;;1571849;27;84381;-89
2021/01/16 12:35:52;;;;;;;;;28.00;19.25;;;;;;;;1572654;27;84030;-89
2021/01/16 12:36:44;;;;;;;;;17.00;15.00;;;;;;;;1574849;27;86233;-89
2021/01/16 12:37:33;;;;;;;;;21.00;18.60;;;;;;;;1575180;27;85110;-90
2021/01/16 12:38:18;;;;;;;;;20.60;18.00;;;;;;;;1564259;27;83852;-90
2021/01/16 12:39:04;;;;;;;;;16.75;16.50;;;;;;;;1566172;27;85291;-89
2021/01/16 12:39:49;;;;;;;;;22.25;20.75;;;;;;;;1574397;27;85143;-89
2021/01/16 12:40:39;;;;;;;;;21.00;19.75;;;;;;;;1571802;27;85945;-90
2021/01/16 12:41:25;;;;;;;;;24.20;24.20;;;;;;;;1566729;27;83616;-91
2021/01/16 12:42:11;;;;;;;;;23.00;18.25;;;;;;;;1565689;27;83469;-90
2021/01/16 12:42:56;;;;;;;;;17.25;17.25;;;;;;;;1561955;28;83975;-90
2021/01/16 12:43:46;;;;;;;;;14.25;14.25;;;;;;;;1553302;28;86944;-90
2021/01/16 12:44:34;;;;;;;;;18.20;18.00;;;;;;;;1561322;28;83485;-90
2021/01/16 12:45:20;;;;;;;;;20.80;18.00;;;;;;;;1571176;27;84784;-91
2021/01/16 12:46:06;;;;;;;;;15.00;13.80;;;;;;;;1570563;27;86545;-91
2021/01/16 12:46:53;;;;;;;;;20.50;15.00;;;;;;;;1571662;27;84654;-90
2021/01/16 12:47:39;;;;;;;;;11.40;9.60;;;;;;;;1571629;27;84768;-90
2021/01/16 12:48:30;;;;;;;;;24.50;23.00;;;;;;;;1565924;27;84666;-90
2021/01/16 12:49:17;;;;;;;;;21.80;21.80;;;;;;;;1558079;28;84682;-90
2021/01/16 12:50:03;;;;;;;;;21.00;20.60;;;;;;;;1558007;28;84518;-90
2021/01/16 12:50:51;;;;;;;;;15.60;14.60;;;;;;;;1560872;28;84580;-89
2021/01/16 12:51:39;;;;;;;;;42.00;36.00;;;;;;;;1558659;27;84991;-90
2021/01/16 12:52:28;;;;;;;;;37.20;33.40;;;;;;;;1551858;27;86658;-90
2021/01/16 12:53:14;;;;;;;;;35.40;32.00;;;;;;;;1557813;28;86758;-90
2021/01/16 12:53:59;;;;;;;;;20.25;16.25;;;;;;;;1561138;28;86092;-90